sensor_id;sensor_type;location;lat;lon;timestamp;pressure;altitude;pressure_sealevel;temperature;humidity
21869;BME280;11099;41.564;23.296;2024-01-30T06:03:44;99474.56;;;3.92;49.91
21869;BME280;11099;41.564;23.296;2024-01-30T06:06:39;99460.34;;;3.93;50.24
21869;BME280;11099;41.564;23.296;2024-01-30T06:09:18;99422.56;;;3.81;49.96
21869;BME280;11099;41.564;23.296;2024-01-30T06:11:56;99503.34;;;4.19;50.23
21869;BME280;11099;41.564;23.296;2024-01-30T06:14:46;99500.69;;;4.44;49.95
21869;BME280;11099;41.564;23.296;2024-01-30T06:17:48;99479.25;;;4.77;48.78
21869;BME280;11099;41.564;23.296;2024-01-30T06:20:39;99435.25;;;3.91;50.24
21869;BME280;11099;41.564;23.296;2024-01-30T06:26:22;99473.56;;;4.12;51.33
21869;BME280;11099;41.564;23.296;2024-01-30T06:41:51;99433.16;;;4.43;48.44
21869;BME280;11099;41.564;23.296;2024-01-30T06:44:23;99511.88;;;4.83;48.61
21869;BME280;11099;41.564;23.296;2024-01-30T06:46:53;99479.56;;;4.87;47.84
21869;BME280;11099;41.564;23.296;2024-01-30T07:02:26;99496.94;;;4.95;45.60
21869;BME280;11099;41.564;23.296;2024-01-30T07:05:04;99506.66;;;5.31;45.99
21869;BME280;11099;41.564;23.296;2024-01-30T07:08:15;99459.09;;;5.01;45.54
21869;BME280;11099;41.564;23.296;2024-01-30T07:29:07;99491.41;;;5.63;43.67
21869;BME280;11099;41.564;23.296;2024-01-30T07:31:47;99516.97;;;5.81;44.73
21869;BME280;11099;41.564;23.296;2024-01-30T07:37:21;99527.09;;;5.84;44.13
21869;BME280;11099;41.564;23.296;2024-01-30T07:42:31;99457.69;;;5.47;43.74
21869;BME280;11099;41.564;23.296;2024-01-30T07:45:02;99469.25;;;5.76;43.61
21869;BME280;11099;41.564;23.296;2024-01-30T07:47:58;99470.75;;;5.72;42.78
21869;BME280;11099;41.564;23.296;2024-01-30T07:50:44;99492.81;;;6.78;42.59
21869;BME280;11099;41.564;23.296;2024-01-30T07:53:26;99462.91;;;6.19;42.62
21869;BME280;11099;41.564;23.296;2024-01-30T07:56:17;99491.47;;;6.40;42.21
21869;BME280;11099;41.564;23.296;2024-01-30T08:01:32;99484.41;;;6.69;41.87
21869;BME280;11099;41.564;23.296;2024-01-30T08:04:25;99519.25;;;7.01;41.93
21869;BME280;11099;41.564;23.296;2024-01-30T08:07:23;99528.59;;;6.80;41.44
21869;BME280;11099;41.564;23.296;2024-01-30T08:13:10;99518.84;;;7.61;40.45
21869;BME280;11099;41.564;23.296;2024-01-30T08:16:02;99495.25;;;7.20;41.29
21869;BME280;11099;41.564;23.296;2024-01-30T08:18:32;99463.59;;;7.13;40.83
21869;BME280;11099;41.564;23.296;2024-01-30T08:29:36;99507.94;;;8.03;40.38
21869;BME280;11099;41.564;23.296;2024-01-30T08:32:21;99504.88;;;6.97;42.25
21869;BME280;11099;41.564;23.296;2024-01-30T08:34:50;99474.91;;;6.33;42.80
21869;BME280;11099;41.564;23.296;2024-01-30T08:40:20;99465.84;;;7.04;42.72
21869;BME280;11099;41.564;23.296;2024-01-30T08:42:51;99459.13;;;7.13;40.88
21869;BME280;11099;41.564;23.296;2024-01-30T08:53:28;99452.53;;;8.07;40.49
21869;BME280;11099;41.564;23.296;2024-01-30T08:56:20;99456.94;;;7.84;40.39
21869;BME280;11099;41.564;23.296;2024-01-30T08:58:50;99429.53;;;7.79;40.23
21869;BME280;11099;41.564;23.296;2024-01-30T09:01:19;99437.66;;;8.39;39.36
21869;BME280;11099;41.564;23.296;2024-01-30T09:04:17;99416.53;;;7.77;39.91
21869;BME280;11099;41.564;23.296;2024-01-30T09:09:46;99490.00;;;8.61;38.65
21869;BME280;11099;41.564;23.296;2024-01-30T09:12:15;99414.75;;;8.16;38.12
21869;BME280;11099;41.564;23.296;2024-01-30T09:14:58;99467.81;;;8.50;37.50
21869;BME280;11099;41.564;23.296;2024-01-30T09:17:27;99450.50;;;8.64;37.34
21869;BME280;11099;41.564;23.296;2024-01-30T09:19:55;99438.94;;;8.76;37.19
21869;BME280;11099;41.564;23.296;2024-01-30T09:22:33;99452.25;;;9.46;35.97
21869;BME280;11099;41.564;23.296;2024-01-30T09:25:04;99449.25;;;8.94;36.61
21869;BME280;11099;41.564;23.296;2024-01-30T09:28:06;99449.53;;;9.68;35.61
21869;BME280;11099;41.564;23.296;2024-01-30T09:30:54;99422.28;;;8.58;36.90
21869;BME280;11099;41.564;23.296;2024-01-30T09:33:39;99453.38;;;9.56;36.59
21869;BME280;11099;41.564;23.296;2024-01-30T09:36:33;99483.47;;;9.88;36.63
21869;BME280;11099;41.564;23.296;2024-01-30T09:39:14;99444.88;;;9.05;36.39
21869;BME280;11099;41.564;23.296;2024-01-30T09:45:11;99404.31;;;8.65;37.34
21869;BME280;11099;41.564;23.296;2024-01-30T09:48:12;99454.03;;;9.95;35.59
21869;BME280;11099;41.564;23.296;2024-01-30T09:51:01;99409.41;;;8.33;36.54
21869;BME280;11099;41.564;23.296;2024-01-30T10:03:55;99382.44;;;8.36;37.26
21869;BME280;11099;41.564;23.296;2024-01-30T10:09:26;99397.38;;;8.86;36.18
21869;BME280;11099;41.564;23.296;2024-01-30T10:11:57;99457.97;;;9.92;36.03
21869;BME280;11099;41.564;23.296;2024-01-30T10:14:45;99385.88;;;9.94;34.96
21869;BME280;11099;41.564;23.296;2024-01-30T10:17:16;99353.22;;;9.02;35.52
21869;BME280;11099;41.564;23.296;2024-01-30T10:22:29;99371.00;;;9.29;36.07
21869;BME280;11099;41.564;23.296;2024-01-30T10:25:02;99422.44;;;10.46;35.30
21869;BME280;11099;41.564;23.296;2024-01-30T10:48:53;99368.31;;;10.98;35.13
21869;BME280;11099;41.564;23.296;2024-01-30T10:51:32;99298.09;;;9.94;35.86
21869;BME280;11099;41.564;23.296;2024-01-30T10:54:10;99348.25;;;10.70;35.40
21869;BME280;11099;41.564;23.296;2024-01-30T10:56:50;99328.13;;;9.89;35.73
21869;BME280;11099;41.564;23.296;2024-01-30T11:01:57;99333.91;;;10.86;34.65
21869;BME280;11099;41.564;23.296;2024-01-30T11:04:43;99339.56;;;11.15;34.41
21869;BME280;11099;41.564;23.296;2024-01-30T11:07:35;99346.91;;;10.67;35.37
21869;BME280;11099;41.564;23.296;2024-01-30T11:10:04;99258.00;;;10.16;35.03
21869;BME280;11099;41.564;23.296;2024-01-30T11:12:42;99271.59;;;10.14;34.58
21869;BME280;11099;41.564;23.296;2024-01-30T11:15:25;99235.13;;;10.15;34.71
21869;BME280;11099;41.564;23.296;2024-01-30T11:18:02;99252.56;;;10.43;35.69
21869;BME280;11099;41.564;23.296;2024-01-30T11:20:35;99257.19;;;11.03;34.42
21869;BME280;11099;41.564;23.296;2024-01-30T11:23:21;99265.97;;;10.06;35.26
21869;BME280;11099;41.564;23.296;2024-01-30T11:25:57;99235.91;;;10.15;34.76
21869;BME280;11099;41.564;23.296;2024-01-30T11:28:24;99269.69;;;10.77;34.11
21869;BME280;11099;41.564;23.296;2024-01-30T11:34:07;99293.47;;;11.60;33.32
21869;BME280;11099;41.564;23.296;2024-01-30T11:36:52;99289.47;;;11.22;34.47
21869;BME280;11099;41.564;23.296;2024-01-30T11:39:23;99258.00;;;10.89;33.83
21869;BME280;11099;41.564;23.296;2024-01-30T11:41:53;99238.25;;;10.74;33.42
21869;BME280;11099;41.564;23.296;2024-01-30T11:44:34;99256.06;;;9.91;35.42
21869;BME280;11099;41.564;23.296;2024-01-30T11:47:30;99293.69;;;11.03;35.23
21869;BME280;11099;41.564;23.296;2024-01-30T11:50:01;99222.25;;;10.74;34.35
21869;BME280;11099;41.564;23.296;2024-01-30T11:52:33;99227.88;;;10.73;34.55
21869;BME280;11099;41.564;23.296;2024-01-30T11:55:16;99285.03;;;10.40;34.97
21869;BME280;11099;41.564;23.296;2024-01-30T11:57:49;99226.28;;;10.77;33.91
21869;BME280;11099;41.564;23.296;2024-01-30T12:00:26;99218.53;;;10.86;34.13
21869;BME280;11099;41.564;23.296;2024-01-30T12:03:14;99234.25;;;10.82;33.92
21869;BME280;11099;41.564;23.296;2024-01-30T12:05:56;99250.53;;;11.01;34.49
21869;BME280;11099;41.564;23.296;2024-01-30T12:08:27;99197.22;;;10.65;34.08
21869;BME280;11099;41.564;23.296;2024-01-30T12:36:48;99152.72;;;10.81;33.54
21869;BME280;11099;41.564;23.296;2024-01-30T12:48:26;99174.53;;;11.44;32.65
21869;BME280;11099;41.564;23.296;2024-01-30T12:51:02;99178.47;;;11.67;31.97
21869;BME280;11099;41.564;23.296;2024-01-30T12:53:30;99217.72;;;11.51;32.99
21869;BME280;11099;41.564;23.296;2024-01-30T13:04:03;99176.41;;;11.44;33.28
21869;BME280;11099;41.564;23.296;2024-01-30T13:09:23;99224.63;;;11.57;33.39
21869;BME280;11099;41.564;23.296;2024-01-30T13:22:59;99156.31;;;11.72;33.05
21869;BME280;11099;41.564;23.296;2024-01-30T13:30:46;99109.16;;;11.47;33.18
21869;BME280;11099;41.564;23.296;2024-01-30T13:33:16;99111.13;;;11.21;33.81
21869;BME280;11099;41.564;23.296;2024-01-30T13:35:52;99169.44;;;11.48;32.90
21869;BME280;11099;41.564;23.296;2024-01-30T13:38:29;99164.59;;;11.70;33.25
21869;BME280;11099;41.564;23.296;2024-01-30T13:41:23;99196.34;;;11.61;33.28
21869;BME280;11099;41.564;23.296;2024-01-30T13:43:55;99147.03;;;11.54;32.97
21869;BME280;11099;41.564;23.296;2024-01-30T13:46:29;99193.72;;;11.31;33.53
21869;BME280;11099;41.564;23.296;2024-01-30T13:49:10;99158.19;;;11.71;33.06
21869;BME280;11099;41.564;23.296;2024-01-30T13:51:42;99193.03;;;12.00;32.91
21869;BME280;11099;41.564;23.296;2024-01-30T13:54:13;99152.72;;;11.22;33.31
21869;BME280;11099;41.564;23.296;2024-01-30T14:20:33;99127.97;;;11.86;32.86
21869;BME280;11099;41.564;23.296;2024-01-30T14:23:23;99171.59;;;11.41;34.02
21869;BME280;11099;41.564;23.296;2024-01-30T14:34:34;99168.69;;;11.32;33.84
21869;BME280;11099;41.564;23.296;2024-01-30T14:37:08;99151.25;;;11.70;32.91
21869;BME280;11099;41.564;23.296;2024-01-30T14:39:58;99172.03;;;11.68;33.22
21869;BME280;11099;41.564;23.296;2024-01-30T14:47:49;99157.16;;;11.52;33.42
21869;BME280;11099;41.564;23.296;2024-01-30T14:50:24;99168.44;;;11.08;34.37
21869;BME280;11099;41.564;23.296;2024-01-30T15:01:00;99170.00;;;11.45;34.59
21869;BME280;11099;41.564;23.296;2024-01-30T15:03:32;99089.56;;;10.97;34.30
21869;BME280;11099;41.564;23.296;2024-01-30T15:05:58;99124.25;;;10.56;34.80
21869;BME280;11099;41.564;23.296;2024-01-30T15:08:45;99125.84;;;10.77;34.78
21869;BME280;11099;41.564;23.296;2024-01-30T15:13:52;99112.22;;;10.38;35.26
21869;BME280;11099;41.564;23.296;2024-01-30T15:16:19;99145.22;;;10.22;35.04
21869;BME280;11099;41.564;23.296;2024-01-30T15:18:49;99103.47;;;10.27;35.04
21869;BME280;11099;41.564;23.296;2024-01-30T15:26:30;99154.84;;;10.28;35.24
21869;BME280;11099;41.564;23.296;2024-01-30T15:29:05;99144.06;;;9.97;35.82
21869;BME280;11099;41.564;23.296;2024-01-30T15:31:33;99123.72;;;10.39;35.08
21869;BME280;11099;41.564;23.296;2024-01-30T15:34:01;99197.56;;;10.01;35.56
21869;BME280;11099;41.564;23.296;2024-01-30T15:36:29;99200.09;;;10.38;35.63
21869;BME280;11099;41.564;23.296;2024-01-30T15:39:06;99141.28;;;9.14;36.31
21869;BME280;11099;41.564;23.296;2024-01-30T15:41:33;99158.91;;;9.83;35.93
21869;BME280;11099;41.564;23.296;2024-01-30T15:43:59;99215.97;;;9.60;36.45
21869;BME280;11099;41.564;23.296;2024-01-30T15:46:32;99169.56;;;9.88;36.08
21869;BME280;11099;41.564;23.296;2024-01-30T15:49:03;99170.13;;;9.38;36.57
21869;BME280;11099;41.564;23.296;2024-01-30T15:51:32;99191.81;;;9.62;36.20
21869;BME280;11099;41.564;23.296;2024-01-30T15:54:08;99145.69;;;9.41;36.69
21869;BME280;11099;41.564;23.296;2024-01-30T15:56:36;99156.91;;;9.06;36.71
21869;BME280;11099;41.564;23.296;2024-01-30T15:59:36;99151.44;;;9.28;36.45
21869;BME280;11099;41.564;23.296;2024-01-30T16:02:11;99164.66;;;9.60;35.56
21869;BME280;11099;41.564;23.296;2024-01-30T16:04:40;99169.22;;;9.69;35.56
21869;BME280;11099;41.564;23.296;2024-01-30T16:07:09;99194.91;;;9.48;35.95
21869;BME280;11099;41.564;23.296;2024-01-30T16:09:38;99231.44;;;9.63;35.97
21869;BME280;11099;41.564;23.296;2024-01-30T16:12:08;99184.25;;;9.43;36.04
21869;BME280;11099;41.564;23.296;2024-01-30T16:14:35;99249.41;;;10.56;35.10
21869;BME280;11099;41.564;23.296;2024-01-30T16:17:02;99249.91;;;10.53;34.67
21869;BME280;11099;41.564;23.296;2024-01-30T16:27:56;99205.75;;;11.13;33.72
21869;BME280;11099;41.564;23.296;2024-01-30T16:36:25;99187.00;;;9.16;37.00
21869;BME280;11099;41.564;23.296;2024-01-30T16:38:57;99262.72;;;9.98;36.66
21869;BME280;11099;41.564;23.296;2024-01-30T16:41:26;99276.84;;;9.19;37.94
21869;BME280;11099;41.564;23.296;2024-01-30T16:46:45;99229.81;;;9.57;36.56
21869;BME280;11099;41.564;23.296;2024-01-30T16:49:11;99213.06;;;9.19;37.12
21869;BME280;11099;41.564;23.296;2024-01-30T16:51:37;99214.34;;;9.17;37.03
21869;BME280;11099;41.564;23.296;2024-01-30T16:54:08;99254.56;;;8.66;37.82
21869;BME280;11099;41.564;23.296;2024-01-30T16:59:26;99187.94;;;8.68;38.45
21869;BME280;11099;41.564;23.296;2024-01-30T17:01:57;99269.81;;;8.76;38.23
21869;BME280;11099;41.564;23.296;2024-01-30T17:04:26;99218.50;;;8.43;38.31
21869;BME280;11099;41.564;23.296;2024-01-30T17:06:54;99258.94;;;9.42;37.54
21869;BME280;11099;41.564;23.296;2024-01-30T17:09:27;99193.06;;;8.75;37.64
21869;BME280;11099;41.564;23.296;2024-01-30T17:11:53;99245.06;;;9.77;36.36
21869;BME280;11099;41.564;23.296;2024-01-30T17:14:28;99220.41;;;9.07;36.26
21869;BME280;11099;41.564;23.296;2024-01-30T17:19:52;99232.53;;;9.67;35.90
21869;BME280;11099;41.564;23.296;2024-01-30T17:24:58;99206.09;;;8.27;37.87
21869;BME280;11099;41.564;23.296;2024-01-30T17:27:29;99263.09;;;8.68;36.48
21869;BME280;11099;41.564;23.296;2024-01-30T17:30:02;99300.88;;;8.76;37.17
21869;BME280;11099;41.564;23.296;2024-01-30T17:32:29;99303.00;;;9.06;36.44
21869;BME280;11099;41.564;23.296;2024-01-30T17:34:58;99293.94;;;9.29;35.75
21869;BME280;11099;41.564;23.296;2024-01-30T17:37:27;99213.63;;;9.27;35.35
21869;BME280;11099;41.564;23.296;2024-01-30T17:39:59;99286.47;;;9.63;34.80
21869;BME280;11099;41.564;23.296;2024-01-30T17:42:47;99293.56;;;9.52;35.11
21869;BME280;11099;41.564;23.296;2024-01-30T17:45:35;99299.34;;;9.44;34.98
21869;BME280;11099;41.564;23.296;2024-01-30T17:48:14;99297.50;;;8.58;37.53
21869;BME280;11099;41.564;23.296;2024-01-30T17:50:44;99241.34;;;7.62;38.56
21869;BME280;11099;41.564;23.296;2024-01-30T17:53:12;99309.28;;;7.68;38.68
21869;BME280;11099;41.564;23.296;2024-01-30T17:55:42;99245.75;;;7.95;37.43
21869;BME280;11099;41.564;23.296;2024-01-30T17:58:12;99274.75;;;8.24;37.37
21869;BME280;11099;41.564;23.296;2024-01-30T18:00:52;99230.38;;;7.20;39.10
21869;BME280;11099;41.564;23.296;2024-01-30T18:03:23;99239.84;;;8.10;37.22
21869;BME280;11099;41.564;23.296;2024-01-30T18:05:52;99229.72;;;9.10;35.87
21869;BME280;11099;41.564;23.296;2024-01-30T18:08:21;99298.41;;;8.96;36.27
21869;BME280;11099;41.564;23.296;2024-01-30T18:10:54;99260.63;;;9.21;35.76
21869;BME280;11099;41.564;23.296;2024-01-30T18:13:21;99237.81;;;8.93;35.90
21869;BME280;11099;41.564;23.296;2024-01-30T18:15:50;99300.97;;;9.45;36.08
21869;BME280;11099;41.564;23.296;2024-01-30T18:18:17;99316.69;;;8.65;36.71
21869;BME280;11099;41.564;23.296;2024-01-30T18:20:43;99305.59;;;9.28;35.83
21869;BME280;11099;41.564;23.296;2024-01-30T18:23:10;99244.41;;;8.85;35.64
21869;BME280;11099;41.564;23.296;2024-01-30T18:25:37;99271.47;;;9.14;35.89
21869;BME280;11099;41.564;23.296;2024-01-30T18:28:03;99309.63;;;8.76;36.89
21869;BME280;11099;41.564;23.296;2024-01-30T18:30:32;99256.00;;;7.86;38.41
21869;BME280;11099;41.564;23.296;2024-01-30T18:33:01;99297.81;;;7.46;39.76
21869;BME280;11099;41.564;23.296;2024-01-30T18:35:28;99259.59;;;6.63;41.99
21869;BME280;11099;41.564;23.296;2024-01-30T18:38:16;99314.22;;;6.97;42.33
